sensor_id;sensor_type;location;lat;lon;timestamp;pressure;altitude;pressure_sealevel;temperature
60731;BMP280;46580;52.114;11.674;2024-02-26T00:01:07;-19293.56;;;3.08
60731;BMP280;46580;52.114;11.674;2024-02-26T00:03:32;-19290.41;;;2.97
60731;BMP280;46580;52.114;11.674;2024-02-26T00:06:01;-19287.53;;;2.88
60731;BMP280;46580;52.114;11.674;2024-02-26T00:08:26;-19285.81;;;2.82
60731;BMP280;46580;52.114;11.674;2024-02-26T00:10:52;-19286.66;;;2.85
60731;BMP280;46580;52.114;11.674;2024-02-26T00:13:17;-19285.22;;;2.80
60731;BMP280;46580;52.114;11.674;2024-02-26T00:15:43;-19285.53;;;2.81
60731;BMP280;46580;52.114;11.674;2024-02-26T00:18:08;-19281.06;;;2.66
60731;BMP280;46580;52.114;11.674;2024-02-26T00:20:33;-19282.78;;;2.72
60731;BMP280;46580;52.114;11.674;2024-02-26T00:22:59;-19286.66;;;2.85
60731;BMP280;46580;52.114;11.674;2024-02-26T00:25:24;-19287.81;;;2.89
60731;BMP280;46580;52.114;11.674;2024-02-26T00:27:50;-19285.81;;;2.82
60731;BMP280;46580;52.114;11.674;2024-02-26T00:30:15;-19287.69;;;2.88
60731;BMP280;46580;52.114;11.674;2024-02-26T00:32:41;-19284.94;;;2.79
60731;BMP280;46580;52.114;11.674;2024-02-26T00:35:06;-19281.78;;;2.68
60731;BMP280;46580;52.114;11.674;2024-02-26T00:37:32;-19277.47;;;2.54
60731;BMP280;46580;52.114;11.674;2024-02-26T00:39:57;-19277.19;;;2.53
60731;BMP280;46580;52.114;11.674;2024-02-26T00:42:22;-19275.75;;;2.48
60731;BMP280;46580;52.114;11.674;2024-02-26T00:44:48;-19277.31;;;2.53
60731;BMP280;46580;52.114;11.674;2024-02-26T00:47:13;-19276.03;;;2.49
60731;BMP280;46580;52.114;11.674;2024-02-26T00:49:39;-19276.91;;;2.52
60731;BMP280;46580;52.114;11.674;2024-02-26T00:52:04;-19278.06;;;2.56
60731;BMP280;46580;52.114;11.674;2024-02-26T00:54:30;-19274.03;;;2.42
60731;BMP280;46580;52.114;11.674;2024-02-26T00:56:55;-19270.84;;;2.31
60731;BMP280;46580;52.114;11.674;2024-02-26T00:59:20;-19269.56;;;2.27
60731;BMP280;46580;52.114;11.674;2024-02-26T01:01:46;-19269.72;;;2.27
60731;BMP280;46580;52.114;11.674;2024-02-26T01:04:11;-19270.44;;;2.30
60731;BMP280;46580;52.114;11.674;2024-02-26T01:06:37;-19268.56;;;2.23
60731;BMP280;46580;52.114;11.674;2024-02-26T01:09:02;-19270.56;;;2.30
60731;BMP280;46580;52.114;11.674;2024-02-26T01:11:28;-19270.00;;;2.28
60731;BMP280;46580;52.114;11.674;2024-02-26T01:13:54;-19267.25;;;2.19
60731;BMP280;46580;52.114;11.674;2024-02-26T01:16:24;-19264.69;;;2.10
60731;BMP280;46580;52.114;11.674;2024-02-26T01:18:49;-19265.41;;;2.13
60731;BMP280;46580;52.114;11.674;2024-02-26T01:21:15;-19264.53;;;2.10
60731;BMP280;46580;52.114;11.674;2024-02-26T01:23:40;-19262.53;;;2.03
60731;BMP280;46580;52.114;11.674;2024-02-26T01:26:06;-19263.38;;;2.06
60731;BMP280;46580;52.114;11.674;2024-02-26T01:28:31;-19263.09;;;2.05
60731;BMP280;46580;52.114;11.674;2024-02-26T01:30:57;-19263.53;;;2.06
60731;BMP280;46580;52.114;11.674;2024-02-26T01:33:25;-19265.41;;;2.13
60731;BMP280;46580;52.114;11.674;2024-02-26T01:35:51;-19265.25;;;2.12
60731;BMP280;46580;52.114;11.674;2024-02-26T01:38:16;-19266.84;;;2.18
60731;BMP280;46580;52.114;11.674;2024-02-26T01:40:41;-19266.13;;;2.15
60731;BMP280;46580;52.114;11.674;2024-02-26T01:43:07;-19264.81;;;2.11
60731;BMP280;46580;52.114;11.674;2024-02-26T01:45:32;-19266.41;;;2.16
60731;BMP280;46580;52.114;11.674;2024-02-26T01:47:57;-19270.16;;;2.29
60731;BMP280;46580;52.114;11.674;2024-02-26T01:50:23;-19273.16;;;2.39
60731;BMP280;46580;52.114;11.674;2024-02-26T01:52:50;-19274.16;;;2.42
60731;BMP280;46580;52.114;11.674;2024-02-26T01:55:17;-19271.44;;;2.33
60731;BMP280;46580;52.114;11.674;2024-02-26T01:57:46;-19271.16;;;2.32
60731;BMP280;46580;52.114;11.674;2024-02-26T02:00:14;-19272.72;;;2.38
60731;BMP280;46580;52.114;11.674;2024-02-26T02:02:40;-19266.41;;;2.16
60731;BMP280;46580;52.114;11.674;2024-02-26T02:05:07;-19262.25;;;2.02
60731;BMP280;46580;52.114;11.674;2024-02-26T02:07:35;-19264.25;;;2.09
60731;BMP280;46580;52.114;11.674;2024-02-26T02:10:01;-19261.94;;;2.01
60731;BMP280;46580;52.114;11.674;2024-02-26T02:12:27;-19265.41;;;2.13
60731;BMP280;46580;52.114;11.674;2024-02-26T02:14:53;-19264.81;;;2.11
60731;BMP280;46580;52.114;11.674;2024-02-26T02:17:19;-19261.09;;;1.98
60731;BMP280;46580;52.114;11.674;2024-02-26T02:19:44;-19258.50;;;1.89
60731;BMP280;46580;52.114;11.674;2024-02-26T02:22:10;-19255.63;;;1.80
60731;BMP280;46580;52.114;11.674;2024-02-26T02:24:35;-19257.06;;;1.85
60731;BMP280;46580;52.114;11.674;2024-02-26T02:27:01;-19257.91;;;1.87
60731;BMP280;46580;52.114;11.674;2024-02-26T02:29:27;-19255.75;;;1.80
60731;BMP280;46580;52.114;11.674;2024-02-26T02:31:53;-19254.19;;;1.75
60731;BMP280;46580;52.114;11.674;2024-02-26T02:34:22;-19256.19;;;1.82
60731;BMP280;46580;52.114;11.674;2024-02-26T02:36:54;-19256.47;;;1.83
60731;BMP280;46580;52.114;11.674;2024-02-26T02:39:20;-19260.38;;;1.96
60731;BMP280;46580;52.114;11.674;2024-02-26T02:41:46;-19261.38;;;1.99
60731;BMP280;46580;52.114;11.674;2024-02-26T02:44:12;-19261.38;;;1.99
60731;BMP280;46580;52.114;11.674;2024-02-26T02:46:38;-19258.34;;;1.89
60731;BMP280;46580;52.114;11.674;2024-02-26T02:49:03;-19258.22;;;1.88
60731;BMP280;46580;52.114;11.674;2024-02-26T02:51:28;-19257.78;;;1.87
60731;BMP280;46580;52.114;11.674;2024-02-26T02:53:54;-19256.06;;;1.81
60731;BMP280;46580;52.114;11.674;2024-02-26T02:56:19;-19255.91;;;1.81
60731;BMP280;46580;52.114;11.674;2024-02-26T02:58:45;-19256.78;;;1.84
60731;BMP280;46580;52.114;11.674;2024-02-26T03:01:10;-19256.47;;;1.83
60731;BMP280;46580;52.114;11.674;2024-02-26T03:03:35;-19258.50;;;1.89
60731;BMP280;46580;52.114;11.674;2024-02-26T03:06:02;-19258.06;;;1.88
60731;BMP280;46580;52.114;11.674;2024-02-26T03:08:28;-19258.78;;;1.90
60731;BMP280;46580;52.114;11.674;2024-02-26T03:10:53;-19260.06;;;1.95
60731;BMP280;46580;52.114;11.674;2024-02-26T03:13:19;-19258.22;;;1.88
60731;BMP280;46580;52.114;11.674;2024-02-26T03:15:44;-19261.50;;;2.00
60731;BMP280;46580;52.114;11.674;2024-02-26T03:18:10;-19262.09;;;2.02
60731;BMP280;46580;52.114;11.674;2024-02-26T03:20:35;-19261.38;;;1.99
60731;BMP280;46580;52.114;11.674;2024-02-26T03:23:02;-19258.22;;;1.88
60731;BMP280;46580;52.114;11.674;2024-02-26T03:25:28;-19256.34;;;1.82
60731;BMP280;46580;52.114;11.674;2024-02-26T03:27:53;-19253.91;;;1.74
60731;BMP280;46580;52.114;11.674;2024-02-26T03:30:18;-19254.19;;;1.75
60731;BMP280;46580;52.114;11.674;2024-02-26T03:32:44;-19255.03;;;1.78
60731;BMP280;46580;52.114;11.674;2024-02-26T03:35:09;-19256.47;;;1.83
60731;BMP280;46580;52.114;11.674;2024-02-26T03:37:35;-19258.63;;;1.90
60731;BMP280;46580;52.114;11.674;2024-02-26T03:40:00;-19259.94;;;1.94
60731;BMP280;46580;52.114;11.674;2024-02-26T03:42:26;-19262.09;;;2.02
60731;BMP280;46580;52.114;11.674;2024-02-26T03:44:52;-19260.50;;;1.96
60731;BMP280;46580;52.114;11.674;2024-02-26T03:47:17;-19259.50;;;1.93
60731;BMP280;46580;52.114;11.674;2024-02-26T03:49:42;-19260.38;;;1.96
60731;BMP280;46580;52.114;11.674;2024-02-26T03:52:08;-19259.94;;;1.94
60731;BMP280;46580;52.114;11.674;2024-02-26T03:54:33;-19257.91;;;1.87
60731;BMP280;46580;52.114;11.674;2024-02-26T03:56:59;-19255.03;;;1.78
60731;BMP280;46580;52.114;11.674;2024-02-26T03:59:24;-19253.91;;;1.74
60731;BMP280;46580;52.114;11.674;2024-02-26T04:01:50;-19253.03;;;1.71
60731;BMP280;46580;52.114;11.674;2024-02-26T04:04:16;-19253.91;;;1.74
60731;BMP280;46580;52.114;11.674;2024-02-26T04:06:45;-19253.31;;;1.72
60731;BMP280;46580;52.114;11.674;2024-02-26T04:09:12;-19251.88;;;1.67
60731;BMP280;46580;52.114;11.674;2024-02-26T04:11:37;-19251.31;;;1.65
60731;BMP280;46580;52.114;11.674;2024-02-26T04:14:03;-19251.00;;;1.64
60731;BMP280;46580;52.114;11.674;2024-02-26T04:16:29;-19253.31;;;1.72
60731;BMP280;46580;52.114;11.674;2024-02-26T04:18:54;-19252.88;;;1.70
60731;BMP280;46580;52.114;11.674;2024-02-26T04:21:20;-19252.16;;;1.68
60731;BMP280;46580;52.114;11.674;2024-02-26T04:23:48;-19253.03;;;1.71
60731;BMP280;46580;52.114;11.674;2024-02-26T04:26:14;-19255.63;;;1.80
60731;BMP280;46580;52.114;11.674;2024-02-26T04:28:39;-19263.97;;;2.08
60731;BMP280;46580;52.114;11.674;2024-02-26T04:31:05;-19271.16;;;2.32
60731;BMP280;46580;52.114;11.674;2024-02-26T04:33:34;-19267.25;;;2.19
60731;BMP280;46580;52.114;11.674;2024-02-26T04:35:59;-19263.09;;;2.05
60731;BMP280;46580;52.114;11.674;2024-02-26T04:38:25;-19267.25;;;2.19
60731;BMP280;46580;52.114;11.674;2024-02-26T04:40:51;-19266.25;;;2.16
60731;BMP280;46580;52.114;11.674;2024-02-26T04:43:17;-19263.81;;;2.07
60731;BMP280;46580;52.114;11.674;2024-02-26T04:45:43;-19263.25;;;2.05
60731;BMP280;46580;52.114;11.674;2024-02-26T04:48:08;-19260.78;;;1.97
60731;BMP280;46580;52.114;11.674;2024-02-26T04:50:34;-19260.66;;;1.97
60731;BMP280;46580;52.114;11.674;2024-02-26T04:52:59;-19258.63;;;1.90
60731;BMP280;46580;52.114;11.674;2024-02-26T04:55:24;-19256.06;;;1.81
60731;BMP280;46580;52.114;11.674;2024-02-26T04:57:50;-19254.75;;;1.77
60731;BMP280;46580;52.114;11.674;2024-02-26T05:00:16;-19253.19;;;1.71
60731;BMP280;46580;52.114;11.674;2024-02-26T05:02:41;-19249.44;;;1.59
60731;BMP280;46580;52.114;11.674;2024-02-26T05:05:07;-19246.28;;;1.48
60731;BMP280;46580;52.114;11.674;2024-02-26T05:07:34;-19245.84;;;1.47
60731;BMP280;46580;52.114;11.674;2024-02-26T05:10:04;-19246.41;;;1.48
60731;BMP280;46580;52.114;11.674;2024-02-26T05:12:33;-19250.00;;;1.61
60731;BMP280;46580;52.114;11.674;2024-02-26T05:15:01;-19251.16;;;1.65
60731;BMP280;46580;52.114;11.674;2024-02-26T05:17:27;-19252.75;;;1.70
60731;BMP280;46580;52.114;11.674;2024-02-26T05:19:52;-19252.44;;;1.69
60731;BMP280;46580;52.114;11.674;2024-02-26T05:22:17;-19252.16;;;1.68
60731;BMP280;46580;52.114;11.674;2024-02-26T05:24:43;-19253.59;;;1.73
60731;BMP280;46580;52.114;11.674;2024-02-26T05:27:08;-19255.19;;;1.78
60731;BMP280;46580;52.114;11.674;2024-02-26T05:29:33;-19254.47;;;1.76
60731;BMP280;46580;52.114;11.674;2024-02-26T05:31:59;-19252.88;;;1.70
60731;BMP280;46580;52.114;11.674;2024-02-26T05:34:24;-19251.31;;;1.65
60731;BMP280;46580;52.114;11.674;2024-02-26T05:36:50;-19249.59;;;1.59
60731;BMP280;46580;52.114;11.674;2024-02-26T05:39:15;-19246.41;;;1.48
60731;BMP280;46580;52.114;11.674;2024-02-26T05:41:41;-19247.28;;;1.51
60731;BMP280;46580;52.114;11.674;2024-02-26T05:44:08;-19249.00;;;1.57
60731;BMP280;46580;52.114;11.674;2024-02-26T05:46:35;-19250.16;;;1.61
60731;BMP280;46580;52.114;11.674;2024-02-26T05:49:01;-19253.91;;;1.74
60731;BMP280;46580;52.114;11.674;2024-02-26T05:51:26;-19253.03;;;1.71
60731;BMP280;46580;52.114;11.674;2024-02-26T05:53:51;-19251.16;;;1.65
60731;BMP280;46580;52.114;11.674;2024-02-26T05:56:21;-19250.72;;;1.63
60731;BMP280;46580;52.114;11.674;2024-02-26T05:58:46;-19252.16;;;1.68
60731;BMP280;46580;52.114;11.674;2024-02-26T06:01:12;-19251.59;;;1.66
60731;BMP280;46580;52.114;11.674;2024-02-26T06:03:38;-19253.19;;;1.71
60731;BMP280;46580;52.114;11.674;2024-02-26T06:06:06;-19258.78;;;1.90
60731;BMP280;46580;52.114;11.674;2024-02-26T06:08:31;-19262.25;;;2.02
60731;BMP280;46580;52.114;11.674;2024-02-26T06:10:56;-19261.09;;;1.98
60731;BMP280;46580;52.114;11.674;2024-02-26T06:13:22;-19256.91;;;1.84
60731;BMP280;46580;52.114;11.674;2024-02-26T06:15:50;-19253.03;;;1.71
60731;BMP280;46580;52.114;11.674;2024-02-26T06:18:16;-19251.00;;;1.64
60731;BMP280;46580;52.114;11.674;2024-02-26T06:20:41;-19249.88;;;1.60
60731;BMP280;46580;52.114;11.674;2024-02-26T06:23:07;-19248.56;;;1.56
60731;BMP280;46580;52.114;11.674;2024-02-26T06:25:32;-19249.59;;;1.59
60731;BMP280;46580;52.114;11.674;2024-02-26T06:27:58;-19251.59;;;1.66
60731;BMP280;46580;52.114;11.674;2024-02-26T06:30:23;-19253.91;;;1.74
60731;BMP280;46580;52.114;11.674;2024-02-26T06:32:49;-19259.50;;;1.93
60731;BMP280;46580;52.114;11.674;2024-02-26T06:35:14;-19264.25;;;2.09
60731;BMP280;46580;52.114;11.674;2024-02-26T06:37:40;-19267.84;;;2.21
60731;BMP280;46580;52.114;11.674;2024-02-26T06:40:06;-19271.44;;;2.33
60731;BMP280;46580;52.114;11.674;2024-02-26T06:42:33;-19272.28;;;2.36
60731;BMP280;46580;52.114;11.674;2024-02-26T06:44:59;-19272.16;;;2.36
60731;BMP280;46580;52.114;11.674;2024-02-26T06:47:24;-19273.00;;;2.39
60731;BMP280;46580;52.114;11.674;2024-02-26T06:49:51;-19274.16;;;2.42
60731;BMP280;46580;52.114;11.674;2024-02-26T06:52:16;-19276.59;;;2.51
60731;BMP280;46580;52.114;11.674;2024-02-26T06:54:42;-19277.03;;;2.52
60731;BMP280;46580;52.114;11.674;2024-02-26T06:57:07;-19277.31;;;2.53
60731;BMP280;46580;52.114;11.674;2024-02-26T06:59:33;-19279.63;;;2.61
60731;BMP280;46580;52.114;11.674;2024-02-26T07:01:58;-19280.91;;;2.65
60731;BMP280;46580;52.114;11.674;2024-02-26T07:04:24;-19281.34;;;2.67
60731;BMP280;46580;52.114;11.674;2024-02-26T07:06:49;-19280.78;;;2.65
60731;BMP280;46580;52.114;11.674;2024-02-26T07:09:15;-19279.34;;;2.60
60731;BMP280;46580;52.114;11.674;2024-02-26T07:11:41;-19277.63;;;2.54
60731;BMP280;46580;52.114;11.674;2024-02-26T07:14:10;-19277.91;;;2.55
60731;BMP280;46580;52.114;11.674;2024-02-26T07:16:36;-19277.31;;;2.53
60731;BMP280;46580;52.114;11.674;2024-02-26T07:19:01;-19278.75;;;2.58
60731;BMP280;46580;52.114;11.674;2024-02-26T07:21:27;-19279.63;;;2.61
60731;BMP280;46580;52.114;11.674;2024-02-26T07:23:53;-19279.47;;;2.60
60731;BMP280;46580;52.114;11.674;2024-02-26T07:26:18;-19280.78;;;2.65
60731;BMP280;46580;52.114;11.674;2024-02-26T07:28:44;-19284.09;;;2.76
60731;BMP280;46580;52.114;11.674;2024-02-26T07:31:10;-19287.25;;;2.87
60731;BMP280;46580;52.114;11.674;2024-02-26T07:33:35;-19289.97;;;2.96
60731;BMP280;46580;52.114;11.674;2024-02-26T07:36:00;-19293.72;;;3.09
60731;BMP280;46580;52.114;11.674;2024-02-26T07:38:26;-19295.28;;;3.14
60731;BMP280;46580;52.114;11.674;2024-02-26T07:40:51;-19296.59;;;3.18
60731;BMP280;46580;52.114;11.674;2024-02-26T07:43:17;-19298.16;;;3.24
60731;BMP280;46580;52.114;11.674;2024-02-26T07:45:42;-19297.59;;;3.22
60731;BMP280;46580;52.114;11.674;2024-02-26T07:48:08;-19299.59;;;3.29
60731;BMP280;46580;52.114;11.674;2024-02-26T07:50:33;-19301.75;;;3.36
60731;BMP280;46580;52.114;11.674;2024-02-26T07:52:58;-19303.34;;;3.41
60731;BMP280;46580;52.114;11.674;2024-02-26T07:55:24;-19305.34;;;3.48
60731;BMP280;46580;52.114;11.674;2024-02-26T07:57:49;-19305.34;;;3.48
60731;BMP280;46580;52.114;11.674;2024-02-26T08:00:15;-19309.53;;;3.62
60731;BMP280;46580;52.114;11.674;2024-02-26T08:02:42;-19309.09;;;3.61
60731;BMP280;46580;52.114;11.674;2024-02-26T08:05:09;-19312.69;;;3.73
60731;BMP280;46580;52.114;11.674;2024-02-26T08:07:34;-19314.09;;;3.78
60731;BMP280;46580;52.114;11.674;2024-02-26T08:09:59;-19315.69;;;3.83
60731;BMP280;46580;52.114;11.674;2024-02-26T08:12:25;-19315.41;;;3.82
60731;BMP280;46580;52.114;11.674;2024-02-26T08:14:50;-19315.69;;;3.83
60731;BMP280;46580;52.114;11.674;2024-02-26T08:17:16;-19316.25;;;3.85
60731;BMP280;46580;52.114;11.674;2024-02-26T08:19:42;-19316.84;;;3.87
60731;BMP280;46580;52.114;11.674;2024-02-26T08:22:10;-19317.84;;;3.90
60731;BMP280;46580;52.114;11.674;2024-02-26T08:24:41;-19320.00;;;3.98
60731;BMP280;46580;52.114;11.674;2024-02-26T08:27:07;-19322.72;;;4.07
60731;BMP280;46580;52.114;11.674;2024-02-26T08:29:32;-19324.59;;;4.13
60731;BMP280;46580;52.114;11.674;2024-02-26T08:31:58;-19327.75;;;4.24
60731;BMP280;46580;52.114;11.674;2024-02-26T08:34:23;-19331.50;;;4.37
60731;BMP280;46580;52.114;11.674;2024-02-26T08:36:49;-19333.94;;;4.45
60731;BMP280;46580;52.114;11.674;2024-02-26T08:39:15;-19337.53;;;4.57
60731;BMP280;46580;52.114;11.674;2024-02-26T08:41:42;-19340.69;;;4.68
60731;BMP280;46580;52.114;11.674;2024-02-26T08:44:08;-19343.84;;;4.79
60731;BMP280;46580;52.114;11.674;2024-02-26T08:46:33;-19347.44;;;4.91
60731;BMP280;46580;52.114;11.674;2024-02-26T08:48:58;-19349.00;;;4.96
60731;BMP280;46580;52.114;11.674;2024-02-26T08:51:24;-19351.31;;;5.04
60731;BMP280;46580;52.114;11.674;2024-02-26T08:53:49;-19353.47;;;5.11
60731;BMP280;46580;52.114;11.674;2024-02-26T08:56:16;-19355.63;;;5.19
60731;BMP280;46580;52.114;11.674;2024-02-26T08:58:45;-19356.91;;;5.23
60731;BMP280;46580;52.114;11.674;2024-02-26T09:01:14;-19362.66;;;5.42
60731;BMP280;46580;52.114;11.674;2024-02-26T09:03:42;-19365.66;;;5.53
60731;BMP280;46580;52.114;11.674;2024-02-26T09:06:07;-19368.53;;;5.62
60731;BMP280;46580;52.114;11.674;2024-02-26T09:08:33;-19373.28;;;5.78
60731;BMP280;46580;52.114;11.674;2024-02-26T09:10:58;-19374.56;;;5.83
60731;BMP280;46580;52.114;11.674;2024-02-26T09:13:24;-19376.00;;;5.88
60731;BMP280;46580;52.114;11.674;2024-02-26T09:15:49;-19378.44;;;5.96
60731;BMP280;46580;52.114;11.674;2024-02-26T09:18:15;-19380.59;;;6.03
60731;BMP280;46580;52.114;11.674;2024-02-26T09:20:41;-19383.47;;;6.13
60731;BMP280;46580;52.114;11.674;2024-02-26T09:23:06;-19385.47;;;6.20
60731;BMP280;46580;52.114;11.674;2024-02-26T09:25:32;-19387.34;;;6.26
60731;BMP280;46580;52.114;11.674;2024-02-26T09:27:59;-19388.47;;;6.30
60731;BMP280;46580;52.114;11.674;2024-02-26T09:30:24;-19387.63;;;6.27
60731;BMP280;46580;52.114;11.674;2024-02-26T09:32:50;-19388.34;;;6.30
60731;BMP280;46580;52.114;11.674;2024-02-26T09:35:15;-19390.47;;;6.37
60731;BMP280;46580;52.114;11.674;2024-02-26T09:37:41;-19392.50;;;6.44
60731;BMP280;46580;52.114;11.674;2024-02-26T09:40:09;-19394.66;;;6.51
60731;BMP280;46580;52.114;11.674;2024-02-26T09:42:37;-19399.66;;;6.68
60731;BMP280;46580;52.114;11.674;2024-02-26T09:45:11;-19402.09;;;6.76
60731;BMP280;46580;52.114;11.674;2024-02-26T09:47:37;-19403.53;;;6.81
60731;BMP280;46580;52.114;11.674;2024-02-26T09:50:05;-19407.84;;;6.96
60731;BMP280;46580;52.114;11.674;2024-02-26T09:52:33;-19408.41;;;6.98
60731;BMP280;46580;52.114;11.674;2024-02-26T09:55:00;-19411.28;;;7.07
60731;BMP280;46580;52.114;11.674;2024-02-26T09:57:25;-19409.56;;;7.02
60731;BMP280;46580;52.114;11.674;2024-02-26T09:59:53;-19411.13;;;7.07
60731;BMP280;46580;52.114;11.674;2024-02-26T10:02:20;-19413.44;;;7.15
60731;BMP280;46580;52.114;11.674;2024-02-26T10:04:47;-19415.00;;;7.20
60731;BMP280;46580;52.114;11.674;2024-02-26T10:07:16;-19417.44;;;7.28
60731;BMP280;46580;52.114;11.674;2024-02-26T10:09:41;-19419.44;;;7.35
60731;BMP280;46580;52.114;11.674;2024-02-26T10:12:09;-19419.03;;;7.34
60731;BMP280;46580;52.114;11.674;2024-02-26T10:14:35;-19419.88;;;7.37
60731;BMP280;46580;52.114;11.674;2024-02-26T10:17:01;-19421.44;;;7.42
60731;BMP280;46580;52.114;11.674;2024-02-26T10:19:28;-19422.47;;;7.45
60731;BMP280;46580;52.114;11.674;2024-02-26T10:21:58;-19423.19;;;7.48
60731;BMP280;46580;52.114;11.674;2024-02-26T10:24:30;-19421.88;;;7.43
60731;BMP280;46580;52.114;11.674;2024-02-26T10:26:56;-19421.59;;;7.42
60731;BMP280;46580;52.114;11.674;2024-02-26T10:29:24;-19421.59;;;7.42
60731;BMP280;46580;52.114;11.674;2024-02-26T10:31:53;-19423.03;;;7.47
60731;BMP280;46580;52.114;11.674;2024-02-26T10:34:19;-19426.75;;;7.60
60731;BMP280;46580;52.114;11.674;2024-02-26T10:36:45;-19427.63;;;7.63
60731;BMP280;46580;52.114;11.674;2024-02-26T10:39:13;-19428.47;;;7.66
60731;BMP280;46580;52.114;11.674;2024-02-26T10:41:44;-19427.06;;;7.61
60731;BMP280;46580;52.114;11.674;2024-02-26T10:44:11;-19427.47;;;7.62
60731;BMP280;46580;52.114;11.674;2024-02-26T10:46:37;-19425.03;;;7.54
60731;BMP280;46580;52.114;11.674;2024-02-26T10:49:04;-19424.75;;;7.53
60731;BMP280;46580;52.114;11.674;2024-02-26T10:51:36;-19425.31;;;7.55
60731;BMP280;46580;52.114;11.674;2024-02-26T10:54:15;-19424.91;;;7.54
60731;BMP280;46580;52.114;11.674;2024-02-26T10:56:42;-19428.34;;;7.65
60731;BMP280;46580;52.114;11.674;2024-02-26T10:59:09;-19428.47;;;7.66
60731;BMP280;46580;52.114;11.674;2024-02-26T11:01:35;-19427.47;;;7.62
60731;BMP280;46580;52.114;11.674;2024-02-26T11:04:04;-19426.91;;;7.61
60731;BMP280;46580;52.114;11.674;2024-02-26T11:06:30;-19425.75;;;7.57
60731;BMP280;46580;52.114;11.674;2024-02-26T11:08:56;-19427.34;;;7.62
60731;BMP280;46580;52.114;11.674;2024-02-26T11:11:25;-19429.34;;;7.69
60731;BMP280;46580;52.114;11.674;2024-02-26T11:13:53;-19428.47;;;7.66
60731;BMP280;46580;52.114;11.674;2024-02-26T11:16:23;-19429.78;;;7.70
60731;BMP280;46580;52.114;11.674;2024-02-26T11:18:49;-19430.34;;;7.72
60731;BMP280;46580;52.114;11.674;2024-02-26T11:21:19;-19436.78;;;7.94
60731;BMP280;46580;52.114;11.674;2024-02-26T11:23:48;-19439.66;;;8.04
60731;BMP280;46580;52.114;11.674;2024-02-26T11:26:15;-19441.09;;;8.09
60731;BMP280;46580;52.114;11.674;2024-02-26T11:28:41;-19440.66;;;8.07
60731;BMP280;46580;52.114;11.674;2024-02-26T11:31:07;-19441.53;;;8.10
60731;BMP280;46580;52.114;11.674;2024-02-26T11:33:34;-19439.38;;;8.03
60731;BMP280;46580;52.114;11.674;2024-02-26T11:36:26;-19439.94;;;8.05
60731;BMP280;46580;52.114;11.674;2024-02-26T11:38:52;-19438.94;;;8.01
60731;BMP280;46580;52.114;11.674;2024-02-26T11:41:18;-19439.38;;;8.03
60731;BMP280;46580;52.114;11.674;2024-02-26T11:44:01;-19439.53;;;8.03
60731;BMP280;46580;52.114;11.674;2024-02-26T11:46:34;-19439.09;;;8.02
60731;BMP280;46580;52.114;11.674;2024-02-26T11:51:55;-19439.94;;;8.05
60731;BMP280;46580;52.114;11.674;2024-02-26T11:54:53;-19441.66;;;8.11
60731;BMP280;46580;52.114;11.674;2024-02-26T11:57:29;-19442.97;;;8.15
60731;BMP280;46580;52.114;11.674;2024-02-26T12:00:11;-19445.81;;;8.25
60731;BMP280;46580;52.114;11.674;2024-02-26T12:05:16;-19448.84;;;8.35
60731;BMP280;46580;52.114;11.674;2024-02-26T12:07:46;-19450.41;;;8.40
60731;BMP280;46580;52.114;11.674;2024-02-26T12:13:02;-19452.84;;;8.49
60731;BMP280;46580;52.114;11.674;2024-02-26T12:15:32;-19455.72;;;8.58
60731;BMP280;46580;52.114;11.674;2024-02-26T12:18:03;-19455.41;;;8.57
60731;BMP280;46580;52.114;11.674;2024-02-26T12:20:29;-19455.13;;;8.56
60731;BMP280;46580;52.114;11.674;2024-02-26T12:22:56;-19454.56;;;8.54
60731;BMP280;46580;52.114;11.674;2024-02-26T12:25:24;-19456.00;;;8.59
60731;BMP280;46580;52.114;11.674;2024-02-26T12:27:51;-19456.28;;;8.60
60731;BMP280;46580;52.114;11.674;2024-02-26T12:30:17;-19459.16;;;8.70
60731;BMP280;46580;52.114;11.674;2024-02-26T12:32:45;-19460.88;;;8.76
60731;BMP280;46580;52.114;11.674;2024-02-26T12:35:11;-19460.88;;;8.76
60731;BMP280;46580;52.114;11.674;2024-02-26T12:37:41;-19460.28;;;8.74
60731;BMP280;46580;52.114;11.674;2024-02-26T12:40:20;-19462.72;;;8.82
60731;BMP280;46580;52.114;11.674;2024-02-26T12:42:54;-19467.31;;;8.98
60731;BMP280;46580;52.114;11.674;2024-02-26T12:45:44;-19469.47;;;9.05
60731;BMP280;46580;52.114;11.674;2024-02-26T12:48:13;-19469.16;;;9.04
60731;BMP280;46580;52.114;11.674;2024-02-26T12:50:39;-19471.19;;;9.11
60731;BMP280;46580;52.114;11.674;2024-02-26T12:53:05;-19470.59;;;9.09
60731;BMP280;46580;52.114;11.674;2024-02-26T12:55:31;-19470.59;;;9.09
60731;BMP280;46580;52.114;11.674;2024-02-26T12:58:00;-19472.63;;;9.16
60731;BMP280;46580;52.114;11.674;2024-02-26T13:00:26;-19472.31;;;9.15
60731;BMP280;46580;52.114;11.674;2024-02-26T13:02:54;-19474.19;;;9.21
60731;BMP280;46580;52.114;11.674;2024-02-26T13:05:21;-19475.63;;;9.26
60731;BMP280;46580;52.114;11.674;2024-02-26T13:07:48;-19474.75;;;9.23
60731;BMP280;46580;52.114;11.674;2024-02-26T13:10:14;-19475.75;;;9.27
60731;BMP280;46580;52.114;11.674;2024-02-26T13:12:46;-19475.31;;;9.25
60731;BMP280;46580;52.114;11.674;2024-02-26T13:15:22;-19475.75;;;9.27
60731;BMP280;46580;52.114;11.674;2024-02-26T13:17:48;-19476.03;;;9.28
60731;BMP280;46580;52.114;11.674;2024-02-26T13:20:28;-19476.63;;;9.29
60731;BMP280;46580;52.114;11.674;2024-02-26T13:23:20;-19474.63;;;9.23
60731;BMP280;46580;52.114;11.674;2024-02-26T13:25:45;-19473.63;;;9.19
60731;BMP280;46580;52.114;11.674;2024-02-26T13:28:15;-19474.19;;;9.21
60731;BMP280;46580;52.114;11.674;2024-02-26T13:30:42;-19474.63;;;9.23
60731;BMP280;46580;52.114;11.674;2024-02-26T13:33:15;-19475.91;;;9.27
60731;BMP280;46580;52.114;11.674;2024-02-26T13:35:40;-19475.47;;;9.26
60731;BMP280;46580;52.114;11.674;2024-02-26T13:38:06;-19475.75;;;9.27
60731;BMP280;46580;52.114;11.674;2024-02-26T13:40:32;-19475.19;;;9.25
60731;BMP280;46580;52.114;11.674;2024-02-26T13:42:58;-19475.19;;;9.25
60731;BMP280;46580;52.114;11.674;2024-02-26T13:45:23;-19476.91;;;9.30
60731;BMP280;46580;52.114;11.674;2024-02-26T13:47:48;-19477.47;;;9.32
60731;BMP280;46580;52.114;11.674;2024-02-26T13:50:14;-19477.47;;;9.32
60731;BMP280;46580;52.114;11.674;2024-02-26T13:52:42;-19476.91;;;9.30
60731;BMP280;46580;52.114;11.674;2024-02-26T13:55:08;-19476.63;;;9.29
60731;BMP280;46580;52.114;11.674;2024-02-26T13:57:33;-19477.47;;;9.32
60731;BMP280;46580;52.114;11.674;2024-02-26T13:59:59;-19477.47;;;9.32
60731;BMP280;46580;52.114;11.674;2024-02-26T14:02:24;-19480.50;;;9.43